createdAt,value
2022-12-12T00:01:37.040Z,-6.10
2022-12-12T00:07:40.525Z,-6.20
2022-12-12T00:13:42.876Z,-6.30
2022-12-12T00:19:44.694Z,-6.20
2022-12-12T00:25:54.847Z,-6.30
2022-12-12T00:31:56.740Z,-6.40
2022-12-12T00:37:58.568Z,-6.40
2022-12-12T00:44:00.424Z,-6.50
2022-12-12T00:50:02.362Z,-6.50
2022-12-12T00:56:05.385Z,-6.60
2022-12-12T01:02:07.324Z,-6.60
2022-12-12T01:08:09.362Z,-6.70
2022-12-12T01:14:11.296Z,-6.80
2022-12-12T01:20:22.486Z,-6.90
2022-12-12T01:26:25.171Z,-6.90
2022-12-12T01:32:27.319Z,-6.90
2022-12-12T01:38:29.261Z,-7.00
2022-12-12T01:44:47.948Z,-7.00
2022-12-12T01:50:50.915Z,-6.90
2022-12-12T01:56:54.803Z,-7.00
2022-12-12T02:02:57.335Z,-7.00
2022-12-12T02:09:03.167Z,-7.00
2022-12-12T02:15:05.593Z,-7.10
2022-12-12T02:21:18.955Z,-7.00
2022-12-12T02:27:39.668Z,-7.10
2022-12-12T02:33:44.622Z,-7.10
2022-12-12T02:39:55.387Z,-7.10
2022-12-12T02:46:21.193Z,-7.00
2022-12-12T02:52:24.284Z,-7.10
2022-12-12T02:58:26.309Z,-7.10
2022-12-12T03:05:15.401Z,-7.10
2022-12-12T03:11:39.975Z,-7.10
2022-12-12T03:17:49.275Z,-7.10
2022-12-12T03:24:02.432Z,-7.10
2022-12-12T03:30:11.657Z,-7.20
2022-12-12T03:36:21.566Z,-7.20
2022-12-12T03:42:34.888Z,-7.20
2022-12-12T03:49:29.072Z,-7.20
2022-12-12T03:55:45.567Z,-7.20
2022-12-12T04:01:55.364Z,-7.20
2022-12-12T04:08:08.954Z,-7.20
2022-12-12T04:14:29.198Z,-7.30
2022-12-12T04:21:23.612Z,-7.40
2022-12-12T04:27:43.416Z,-7.40
2022-12-12T04:33:51.103Z,-7.40
2022-12-12T04:39:56.735Z,-7.50
2022-12-12T04:46:09.558Z,-7.60
2022-12-12T04:52:13.926Z,-7.60
2022-12-12T04:58:15.959Z,-7.50
2022-12-12T05:04:27.680Z,-7.60
2022-12-12T05:10:30.058Z,-7.60
2022-12-12T05:16:38.001Z,-7.60
2022-12-12T05:22:40.272Z,-7.60
2022-12-12T05:28:42.375Z,-7.70
2022-12-12T05:34:44.367Z,-7.80
2022-12-12T05:40:46.301Z,-7.70
2022-12-12T05:46:53.088Z,-7.70
2022-12-12T05:52:55.919Z,-7.70
2022-12-12T05:58:58.034Z,-7.60
2022-12-12T06:04:59.887Z,-7.60
2022-12-12T06:11:06.348Z,-7.70
2022-12-12T06:17:08.597Z,-7.60
2022-12-12T06:23:10.552Z,-7.70
2022-12-12T06:29:14.806Z,-7.70
2022-12-12T06:35:17.370Z,-7.70
2022-12-12T06:41:22.739Z,-7.80
2022-12-12T06:47:24.655Z,-7.80
2022-12-12T06:53:26.533Z,-7.80
2022-12-12T06:59:29.580Z,-7.80
2022-12-12T07:05:31.697Z,-7.90
2022-12-12T07:11:33.559Z,-7.90
2022-12-12T07:17:35.430Z,-7.90
2022-12-12T07:23:37.306Z,-7.90
2022-12-12T07:29:39.132Z,-7.80
2022-12-12T07:35:41.769Z,-7.70
2022-12-12T07:41:43.594Z,-7.50
2022-12-12T07:47:45.776Z,-7.40
2022-12-12T07:53:48.080Z,-7.30
2022-12-12T07:59:49.918Z,-7.30
2022-12-12T08:05:51.738Z,-7.20
2022-12-12T08:11:58.362Z,-7.10
2022-12-12T08:18:00.262Z,-7.00
2022-12-12T08:24:02.794Z,-7.00
2022-12-12T08:30:05.194Z,-6.80
2022-12-12T08:36:22.316Z,-6.90
2022-12-12T08:42:24.262Z,-6.80
2022-12-12T08:48:26.092Z,-6.70
2022-12-12T08:54:27.925Z,-6.60
2022-12-12T09:00:29.789Z,-6.40
2022-12-12T09:06:31.572Z,-6.20
2022-12-12T09:12:38.362Z,-6.10
2022-12-12T09:18:48.705Z,-5.90
2022-12-12T09:24:51.105Z,-5.50
2022-12-12T09:30:53.057Z,-5.20
2022-12-12T09:36:55.059Z,-4.90
2022-12-12T09:42:57.001Z,-4.60
2022-12-12T09:49:05.082Z,-4.40
2022-12-12T09:55:20.458Z,-4.20
2022-12-12T10:01:36.866Z,-4.00
2022-12-12T10:07:46.444Z,-3.70
2022-12-12T10:13:48.398Z,-3.50
2022-12-12T10:19:54.658Z,-3.30
2022-12-12T10:26:01.559Z,-3.20
2022-12-12T10:32:25.778Z,-3.00
2022-12-12T10:38:45.017Z,-3.00
2022-12-12T10:45:13.399Z,-2.70
2022-12-12T10:51:19.889Z,-2.40
2022-12-12T10:57:25.037Z,-2.20
2022-12-12T11:03:35.543Z,-2.00
2022-12-12T11:09:45.438Z,-1.90
2022-12-12T11:16:02.211Z,-1.70
2022-12-12T11:22:04.907Z,-1.60
2022-12-12T11:28:07.165Z,-1.50
2022-12-12T11:34:14.149Z,-1.40
2022-12-12T11:40:26.430Z,-1.30
2022-12-12T11:46:30.683Z,-1.10
2022-12-12T11:52:33.800Z,-1.10
2022-12-12T11:58:45.464Z,-1.10
2022-12-12T12:05:20.711Z,-1.10
2022-12-12T12:11:49.407Z,-1.20
2022-12-12T12:17:55.349Z,-1.10
2022-12-12T12:24:32.250Z,-1.00
2022-12-12T12:30:58.016Z,-0.90
2022-12-12T12:37:18.779Z,-0.90
2022-12-12T12:43:52.031Z,-0.70
2022-12-12T12:50:03.058Z,-0.70
2022-12-12T12:56:28.043Z,-0.60
2022-12-12T13:02:51.534Z,-0.70
2022-12-12T13:09:18.110Z,-0.70
2022-12-12T13:15:29.127Z,-0.70
2022-12-12T13:21:59.084Z,-0.70
2022-12-12T13:28:06.613Z,-0.70
2022-12-12T13:34:21.726Z,-0.70
2022-12-12T13:40:31.352Z,-0.80
2022-12-12T13:46:40.615Z,-0.90
2022-12-12T13:52:43.139Z,-1.10
2022-12-12T13:58:44.988Z,-1.20
2022-12-12T14:04:47.372Z,-1.20
2022-12-12T14:10:49.371Z,-1.30
2022-12-12T14:16:54.507Z,-1.50
2022-12-12T14:22:59.099Z,-1.70
2022-12-12T14:29:16.308Z,-2.00
2022-12-12T14:35:43.427Z,-2.20
2022-12-12T14:41:56.165Z,-2.50
2022-12-12T14:48:29.162Z,-2.80
2022-12-12T14:54:31.595Z,-3.20
2022-12-12T15:00:33.539Z,-3.50
2022-12-12T15:06:41.183Z,-3.80
2022-12-12T15:12:46.178Z,-4.10
2022-12-12T15:18:52.725Z,-4.30
2022-12-12T15:24:56.534Z,-4.50
2022-12-12T15:30:58.684Z,-4.70
2022-12-12T15:37:18.124Z,-4.80
2022-12-12T15:43:25.488Z,-4.90
2022-12-12T15:49:43.009Z,-5.00
2022-12-12T15:56:15.510Z,-5.10
2022-12-12T16:02:25.427Z,-5.20
2022-12-12T16:08:36.036Z,-5.30
2022-12-12T16:14:49.914Z,-5.40
2022-12-12T16:21:00.384Z,-5.50
2022-12-12T16:27:17.509Z,-5.60
2022-12-12T16:33:21.938Z,-5.50
2022-12-12T16:39:23.982Z,-5.50
2022-12-12T16:45:26.012Z,-5.50
2022-12-12T16:51:28.835Z,-5.60
2022-12-12T16:57:30.648Z,-5.70
2022-12-12T17:03:34.109Z,-5.80
2022-12-12T17:09:36.587Z,-6.00
2022-12-12T17:15:39.939Z,-6.10
2022-12-12T17:21:46.198Z,-6.10
2022-12-12T17:27:48.430Z,-6.20
2022-12-12T17:33:51.502Z,-6.20
2022-12-12T17:39:53.586Z,-6.30
2022-12-12T17:46:00.613Z,-6.50
2022-12-12T17:52:08.677Z,-6.60
2022-12-12T17:58:13.028Z,-6.60
2022-12-12T18:04:14.882Z,-6.70
2022-12-12T18:10:19.960Z,-6.70
2022-12-12T18:16:24.640Z,-6.70
2022-12-12T18:22:33.682Z,-6.70
2022-12-12T18:28:39.191Z,-6.80
2022-12-12T18:34:42.385Z,-6.80
2022-12-12T18:40:44.227Z,-6.80
2022-12-12T18:46:46.199Z,-6.80
2022-12-12T18:52:48.194Z,-6.90
2022-12-12T18:58:51.937Z,-6.90
2022-12-12T19:04:54.306Z,-7.00
2022-12-12T19:10:56.271Z,-7.00
2022-12-12T19:16:58.243Z,-7.00
2022-12-12T19:23:00.172Z,-7.10
2022-12-12T19:29:07.940Z,-7.20
2022-12-12T19:35:11.259Z,-7.10
2022-12-12T19:41:15.082Z,-7.20
2022-12-12T19:47:19.379Z,-7.30
2022-12-12T19:53:21.454Z,-7.30
2022-12-12T19:59:23.286Z,-7.40
2022-12-12T20:05:25.558Z,-7.40
2022-12-12T20:11:27.663Z,-7.40
2022-12-12T20:17:32.217Z,-7.40
2022-12-12T20:23:36.446Z,-7.50
2022-12-12T20:29:38.314Z,-7.50
2022-12-12T20:35:40.326Z,-7.50
2022-12-12T20:41:43.664Z,-7.60
2022-12-12T20:47:46.830Z,-7.70
2022-12-12T20:53:50.672Z,-7.70
2022-12-12T20:59:58.689Z,-7.80
2022-12-12T21:06:01.282Z,-7.80
2022-12-12T21:12:03.955Z,-7.80
2022-12-12T21:18:06.928Z,-7.80
2022-12-12T21:24:11.588Z,-7.90
2022-12-12T21:30:24.971Z,-8.00
2022-12-12T21:36:40.087Z,-8.00
2022-12-12T21:42:44.578Z,-8.00
2022-12-12T21:48:47.062Z,-8.00
2022-12-12T21:54:48.921Z,-8.10
2022-12-12T22:00:50.728Z,-8.10
2022-12-12T22:06:52.630Z,-8.20
2022-12-12T22:12:57.108Z,-8.20
2022-12-12T22:19:06.074Z,-8.20
2022-12-12T22:25:08.442Z,-8.20
2022-12-12T22:31:11.121Z,-8.20
2022-12-12T22:37:13.053Z,-8.20
2022-12-12T22:43:14.885Z,-8.30
2022-12-12T22:49:20.094Z,-8.30
2022-12-12T22:55:21.938Z,-8.30
2022-12-12T23:01:24.638Z,-8.30
2022-12-12T23:07:26.473Z,-8.40
2022-12-12T23:13:28.274Z,-8.40
2022-12-12T23:19:30.454Z,-8.40
2022-12-12T23:25:32.257Z,-8.50
2022-12-12T23:31:37.091Z,-8.50
2022-12-12T23:37:38.973Z,-8.50
2022-12-12T23:43:41.995Z,-8.60
2022-12-12T23:49:43.865Z,-8.60
2022-12-12T23:55:45.675Z,-8.60
